Time;durP1;ratioP1;P1;durP2;ratioP2;P2;SDS_P1;SDS_P2;PMS_P1;PMS_P2;Temp;Humidity;BMP_temperature;BMP_pressure;BME280_temperature;BME280_humidity;BME280_pressure;Samples;Min_cycle;Max_cycle;Signal;HPM_P1;HPM_P2
2023/10/27 00:02:10;;;;;;;7.30;2.20;;;;;;;;;;6141521;23;20021;-81
2023/10/27 00:04:37;;;;;;;7.90;2.30;;;;;;;;;;6178819;23;20017;-81
2023/10/27 00:07:05;;;;;;;6.13;3.22;;;;;;;;;;6142840;23;20025;-81
2023/10/27 00:09:35;;;;;;;6.13;2.97;;;;;;;;;;6165710;23;20017;-81
2023/10/27 00:12:05;;;;;;;6.80;2.55;;;;;;;;;;6166940;23;20016;-81
2023/10/27 00:14:35;;;;;;;4.68;3.10;;;;;;;;;;6142434;23;20021;-81
2023/10/27 00:17:02;;;;;;;4.82;3.20;;;;;;;;;;6141027;23;20039;-81
2023/10/27 00:19:30;;;;;;;6.53;3.03;;;;;;;;;;6142775;23;20024;-81
2023/10/27 00:21:57;;;;;;;5.32;4.40;;;;;;;;;;6142613;23;20021;-81
2023/10/27 00:24:26;;;;;;;4.63;3.80;;;;;;;;;;6167265;23;20037;-81
2023/10/27 00:26:53;;;;;;;8.10;3.50;;;;;;;;;;6193349;23;20017;-81
2023/10/27 00:29:24;;;;;;;7.95;4.20;;;;;;;;;;6144648;23;20027;-81
2023/10/27 00:31:56;;;;;;;10.80;3.63;;;;;;;;;;6182590;23;20029;-81
2023/10/27 00:34:23;;;;;;;5.80;3.42;;;;;;;;;;6171506;23;20027;-81
2023/10/27 00:36:50;;;;;;;7.65;3.50;;;;;;;;;;6146587;23;20021;-81
2023/10/27 00:39:22;;;;;;;7.30;3.08;;;;;;;;;;6146871;23;20020;-81
2023/10/27 00:41:51;;;;;;;4.25;2.72;;;;;;;;;;6146472;23;20019;-81
2023/10/27 00:44:18;;;;;;;7.93;3.20;;;;;;;;;;6144581;23;20029;-81
2023/10/27 00:46:45;;;;;;;4.25;3.20;;;;;;;;;;6176649;23;20720;-81
2023/10/27 00:49:13;;;;;;;4.78;3.08;;;;;;;;;;6141627;23;20593;-81
2023/10/27 00:51:46;;;;;;;5.63;3.03;;;;;;;;;;6140715;23;20017;-81
2023/10/27 00:54:15;;;;;;;7.88;3.72;;;;;;;;;;6140635;23;20021;-82
2023/10/27 00:56:43;;;;;;;6.28;3.25;;;;;;;;;;6142265;23;20025;-82
2023/10/27 00:59:12;;;;;;;5.80;2.78;;;;;;;;;;6142386;23;20072;-82
2023/10/27 01:01:39;;;;;;;5.05;2.97;;;;;;;;;;6142719;23;20476;-82
2023/10/27 01:04:06;;;;;;;8.55;3.72;;;;;;;;;;6169632;23;20468;-82
2023/10/27 01:06:36;;;;;;;4.80;2.97;;;;;;;;;;6144895;23;20028;-82
2023/10/27 01:09:03;;;;;;;5.55;2.63;;;;;;;;;;6145230;23;20021;-82
2023/10/27 01:11:31;;;;;;;8.93;2.83;;;;;;;;;;6142706;23;20025;-82
2023/10/27 01:14:01;;;;;;;6.65;2.67;;;;;;;;;;6161043;23;20377;-81
2023/10/27 01:16:32;;;;;;;5.45;3.33;;;;;;;;;;6140118;23;20059;-81
2023/10/27 01:18:59;;;;;;;3.83;2.67;;;;;;;;;;6144977;23;20342;-81
2023/10/27 01:21:26;;;;;;;8.25;3.10;;;;;;;;;;6115149;23;20021;-81
2023/10/27 01:23:55;;;;;;;6.70;2.88;;;;;;;;;;6092510;23;20026;-81
2023/10/27 01:26:22;;;;;;;4.53;3.20;;;;;;;;;;6116711;23;20020;-81
2023/10/27 01:28:52;;;;;;;5.40;3.17;;;;;;;;;;6141878;23;20026;-81
2023/10/27 01:31:22;;;;;;;10.43;3.43;;;;;;;;;;6116277;23;20014;-81
2023/10/27 01:33:49;;;;;;;7.72;2.92;;;;;;;;;;6139410;23;20036;-81
2023/10/27 01:36:17;;;;;;;11.30;3.75;;;;;;;;;;6116950;23;20022;-81
2023/10/27 01:38:44;;;;;;;7.50;3.80;;;;;;;;;;6116701;23;20036;-81
2023/10/27 01:41:15;;;;;;;6.18;4.43;;;;;;;;;;6115989;23;20194;-81
2023/10/27 01:43:46;;;;;;;16.38;6.45;;;;;;;;;;6116610;23;20029;-81
2023/10/27 01:46:14;;;;;;;11.95;4.00;;;;;;;;;;6115808;23;20452;-81
2023/10/27 01:48:41;;;;;;;6.15;4.75;;;;;;;;;;6114829;23;20032;-81
2023/10/27 01:51:10;;;;;;;8.70;5.03;;;;;;;;;;6115489;23;20350;-81
2023/10/27 01:53:38;;;;;;;9.73;5.13;;;;;;;;;;6091119;23;20074;-81
2023/10/27 01:56:11;;;;;;;10.95;4.53;;;;;;;;;;6092645;23;20030;-81
2023/10/27 01:58:44;;;;;;;11.20;4.80;;;;;;;;;;6116088;23;20018;-81
2023/10/27 02:01:11;;;;;;;7.60;3.65;;;;;;;;;;6142366;23;20445;-81
2023/10/27 02:03:41;;;;;;;13.02;4.57;;;;;;;;;;6092862;23;20048;-81
2023/10/27 02:06:08;;;;;;;9.20;4.13;;;;;;;;;;6116302;23;20030;-81
2023/10/27 02:08:36;;;;;;;7.90;3.83;;;;;;;;;;6091549;23;20026;-81
2023/10/27 02:11:06;;;;;;;6.93;3.53;;;;;;;;;;6093070;23;20028;-81
2023/10/27 02:13:36;;;;;;;5.65;3.38;;;;;;;;;;6115666;23;20029;-81
2023/10/27 02:16:08;;;;;;;7.57;3.25;;;;;;;;;;6117011;23;20028;-81
2023/10/27 02:18:37;;;;;;;6.75;3.30;;;;;;;;;;6115258;23;20018;-81
2023/10/27 02:21:07;;;;;;;5.35;3.45;;;;;;;;;;6115325;23;20014;-81
2023/10/27 02:23:34;;;;;;;13.07;3.90;;;;;;;;;;6116403;23;20032;-81
2023/10/27 02:26:04;;;;;;;7.80;3.17;;;;;;;;;;6116633;23;20026;-82
2023/10/27 02:28:34;;;;;;;5.25;2.85;;;;;;;;;;6092863;23;20036;-82
2023/10/27 02:31:04;;;;;;;4.75;2.70;;;;;;;;;;6117464;23;20014;-81
2023/10/27 02:33:32;;;;;;;7.10;3.40;;;;;;;;;;6121679;23;20022;-81
2023/10/27 02:35:59;;;;;;;5.57;3.22;;;;;;;;;;6121582;23;20021;-81
2023/10/27 02:38:29;;;;;;;3.58;2.70;;;;;;;;;;6122363;23;20017;-81
2023/10/27 02:41:07;;;;;;;7.20;3.08;;;;;;;;;;6123156;23;20018;-81
2023/10/27 02:43:34;;;;;;;5.10;2.83;;;;;;;;;;6134879;23;20025;-81
2023/10/27 02:46:05;;;;;;;7.55;2.90;;;;;;;;;;6124743;23;20026;-81
2023/10/27 02:48:34;;;;;;;6.00;2.40;;;;;;;;;;6124086;23;20013;-81
2023/10/27 02:51:04;;;;;;;7.70;3.10;;;;;;;;;;6124059;23;20045;-81
2023/10/27 02:53:34;;;;;;;6.30;3.10;;;;;;;;;;6124504;23;20032;-81
2023/10/27 02:56:06;;;;;;;6.53;2.45;;;;;;;;;;6125121;23;20032;-81
2023/10/27 02:58:36;;;;;;;8.23;4.03;;;;;;;;;;6124186;23;20028;-81
2023/10/27 03:01:07;;;;;;;9.25;2.80;;;;;;;;;;6100250;23;20026;-81
2023/10/27 03:03:38;;;;;;;4.55;2.70;;;;;;;;;;6125155;23;20032;-81
2023/10/27 03:06:08;;;;;;;7.32;3.08;;;;;;;;;;6159340;23;20018;-81
2023/10/27 03:08:38;;;;;;;8.00;2.78;;;;;;;;;;6123711;23;20354;-81
2023/10/27 03:11:08;;;;;;;3.00;2.30;;;;;;;;;;6120175;23;20021;-81
2023/10/27 03:13:35;;;;;;;6.90;2.95;;;;;;;;;;6092286;23;20018;-81
2023/10/27 03:16:04;;;;;;;5.53;2.88;;;;;;;;;;6117849;23;20083;-81
2023/10/27 03:18:31;;;;;;;4.35;2.53;;;;;;;;;;6142322;23;20024;-81
2023/10/27 03:21:03;;;;;;;6.05;2.30;;;;;;;;;;6139733;23;20021;-81
2023/10/27 03:23:30;;;;;;;5.28;2.25;;;;;;;;;;6115191;23;20032;-81
2023/10/27 03:25:58;;;;;;;5.35;2.55;;;;;;;;;;6092885;23;20025;-81
2023/10/27 03:28:28;;;;;;;4.78;2.90;;;;;;;;;;6117182;23;20025;-81
2023/10/27 03:30:55;;;;;;;5.30;2.67;;;;;;;;;;6091446;23;20041;-81
2023/10/27 03:33:25;;;;;;;5.38;2.67;;;;;;;;;;6140076;23;20026;-81
2023/10/27 03:35:52;;;;;;;7.25;3.10;;;;;;;;;;6115928;23;20353;-82
2023/10/27 03:38:20;;;;;;;2.60;2.00;;;;;;;;;;6117178;23;20024;-82
2023/10/27 03:40:48;;;;;;;5.90;2.50;;;;;;;;;;6116136;23;20020;-82
2023/10/27 03:43:16;;;;;;;6.32;2.15;;;;;;;;;;6116205;23;20024;-81
2023/10/27 03:45:43;;;;;;;3.50;2.90;;;;;;;;;;6116938;23;20018;-81
2023/10/27 03:48:11;;;;;;;4.38;2.70;;;;;;;;;;6117160;23;20030;-81
2023/10/27 03:50:38;;;;;;;6.63;2.78;;;;;;;;;;6116140;23;20026;-81
2023/10/27 03:53:07;;;;;;;3.10;2.50;;;;;;;;;;6093162;23;20050;-81
2023/10/27 03:55:39;;;;;;;4.00;2.58;;;;;;;;;;6142476;23;20022;-81
2023/10/27 03:58:16;;;;;;;4.97;3.00;;;;;;;;;;6117173;23;20022;-82
2023/10/27 04:00:42;;;;;;;6.97;3.90;;;;;;;;;;6117289;23;20037;-82
2023/10/27 04:03:10;;;;;;;6.82;4.15;;;;;;;;;;6091609;23;20466;-81
2023/10/27 04:05:37;;;;;;;6.38;4.05;;;;;;;;;;6091749;23;20028;-81
2023/10/27 04:08:07;;;;;;;8.00;4.43;;;;;;;;;;6116862;23;20028;-82
2023/10/27 04:10:36;;;;;;;7.63;4.60;;;;;;;;;;6115642;23;20048;-81
2023/10/27 04:13:06;;;;;;;8.00;4.82;;;;;;;;;;6115052;23;20323;-81
2023/10/27 04:15:33;;;;;;;6.80;4.25;;;;;;;;;;6116045;23;20028;-82
2023/10/27 04:18:03;;;;;;;8.55;3.70;;;;;;;;;;6116899;23;20028;-82
2023/10/27 04:20:31;;;;;;;6.00;3.45;;;;;;;;;;6116849;23;20026;-81
2023/10/27 04:22:58;;;;;;;5.20;3.85;;;;;;;;;;6116398;23;20032;-81
2023/10/27 04:25:30;;;;;;;6.53;3.83;;;;;;;;;;6117003;23;20032;-81
2023/10/27 04:27:57;;;;;;;5.55;3.40;;;;;;;;;;6115999;23;20022;-81
2023/10/27 04:30:26;;;;;;;7.00;4.30;;;;;;;;;;6116365;23;20022;-81
2023/10/27 04:32:55;;;;;;;6.97;4.15;;;;;;;;;;6092654;23;20032;-81
2023/10/27 04:35:22;;;;;;;4.70;4.20;;;;;;;;;;6114287;23;20070;-81
2023/10/27 04:37:52;;;;;;;5.75;4.38;;;;;;;;;;6091272;23;20029;-81
2023/10/27 04:40:19;;;;;;;4.45;3.90;;;;;;;;;;6114898;23;20017;-81
2023/10/27 04:42:49;;;;;;;4.05;3.25;;;;;;;;;;6116531;23;20022;-81
2023/10/27 04:45:16;;;;;;;5.03;4.30;;;;;;;;;;6091801;23;20025;-81
2023/10/27 04:47:45;;;;;;;9.80;4.70;;;;;;;;;;6116959;23;20025;-81
2023/10/27 04:50:12;;;;;;;6.50;4.88;;;;;;;;;;6139214;23;20032;-81
2023/10/27 04:52:42;;;;;;;5.72;4.10;;;;;;;;;;6116090;23;20018;-81
2023/10/27 04:55:10;;;;;;;7.25;3.80;;;;;;;;;;6141195;23;20018;-81
2023/10/27 04:57:37;;;;;;;4.38;3.40;;;;;;;;;;6093537;23;20025;-81
2023/10/27 05:00:09;;;;;;;4.95;3.33;;;;;;;;;;6117108;23;20028;-81
2023/10/27 05:02:38;;;;;;;6.72;3.47;;;;;;;;;;6116591;23;20046;-81
2023/10/27 05:05:08;;;;;;;7.32;3.75;;;;;;;;;;6117006;23;20026;-81
2023/10/27 05:07:38;;;;;;;5.90;3.78;;;;;;;;;;6118163;23;20033;-81
2023/10/27 05:10:08;;;;;;;5.18;3.75;;;;;;;;;;6146863;23;20346;-81
2023/10/27 05:12:37;;;;;;;6.82;3.60;;;;;;;;;;6149049;23;20018;-81
2023/10/27 05:15:05;;;;;;;5.20;3.17;;;;;;;;;;6124142;23;20022;-81
2023/10/27 05:17:34;;;;;;;7.22;3.22;;;;;;;;;;6124097;23;20010;-81
2023/10/27 05:20:05;;;;;;;6.57;3.58;;;;;;;;;;6099320;23;20006;-81
2023/10/27 05:22:36;;;;;;;6.50;3.80;;;;;;;;;;6124616;23;20018;-82
2023/10/27 05:25:06;;;;;;;6.78;3.42;;;;;;;;;;6124696;23;20032;-82
2023/10/27 05:27:36;;;;;;;7.43;4.15;;;;;;;;;;6101207;23;20028;-82
2023/10/27 05:30:04;;;;;;;4.32;2.95;;;;;;;;;;6124508;23;20024;-81
2023/10/27 05:32:33;;;;;;;7.07;2.80;;;;;;;;;;6124570;23;20014;-82
2023/10/27 05:35:02;;;;;;;3.15;2.67;;;;;;;;;;6122501;23;20017;-81
2023/10/27 05:37:31;;;;;;;4.60;2.83;;;;;;;;;;6121565;23;20022;-81
2023/10/27 05:40:00;;;;;;;9.30;3.40;;;;;;;;;;6118474;23;20074;-81
2023/10/27 05:42:27;;;;;;;4.15;2.50;;;;;;;;;;6116448;23;20032;-81
2023/10/27 05:44:54;;;;;;;3.85;2.70;;;;;;;;;;6112516;23;20032;-80
2023/10/27 05:47:23;;;;;;;4.95;2.70;;;;;;;;;;6086601;23;20018;-81
2023/10/27 05:49:54;;;;;;;3.83;2.10;;;;;;;;;;6107167;23;20355;-81
2023/10/27 05:52:22;;;;;;;7.60;2.75;;;;;;;;;;6134410;23;20029;-81
2023/10/27 05:54:49;;;;;;;6.78;2.17;;;;;;;;;;6136167;23;20014;-81
2023/10/27 05:57:17;;;;;;;3.75;2.35;;;;;;;;;;6110569;23;20358;-81
2023/10/27 05:59:45;;;;;;;3.08;1.55;;;;;;;;;;6087449;23;20026;-81
2023/10/27 06:02:12;;;;;;;3.33;1.90;;;;;;;;;;6113745;23;20472;-80
2023/10/27 06:04:39;;;;;;;3.90;2.30;;;;;;;;;;6113337;23;20022;-81
2023/10/27 06:07:06;;;;;;;4.25;2.00;;;;;;;;;;6117785;23;20020;-81
2023/10/27 06:09:36;;;;;;;3.38;2.33;;;;;;;;;;6117282;23;20030;-81
2023/10/27 06:12:04;;;;;;;4.05;2.28;;;;;;;;;;6141615;23;20024;-81
2023/10/27 06:14:35;;;;;;;3.80;2.03;;;;;;;;;;6117082;23;20476;-81
2023/10/27 06:17:06;;;;;;;2.70;1.50;;;;;;;;;;6115634;23;20022;-81
2023/10/27 06:19:34;;;;;;;3.90;1.58;;;;;;;;;;6141154;23;20016;-81
2023/10/27 06:22:01;;;;;;;3.85;1.90;;;;;;;;;;6139575;23;20024;-81
2023/10/27 06:24:28;;;;;;;2.95;1.60;;;;;;;;;;6116624;23;20025;-81
2023/10/27 06:27:00;;;;;;;3.85;2.08;;;;;;;;;;6093307;23;20040;-81
2023/10/27 06:29:27;;;;;;;2.95;2.28;;;;;;;;;;6116443;23;20028;-81
2023/10/27 06:31:56;;;;;;;3.33;1.90;;;;;;;;;;6115208;23;20021;-81
2023/10/27 06:34:25;;;;;;;3.28;2.03;;;;;;;;;;6091061;23;20036;-81
2023/10/27 06:36:53;;;;;;;3.40;1.75;;;;;;;;;;6141345;23;20021;-81
2023/10/27 06:39:20;;;;;;;2.25;1.25;;;;;;;;;;6116609;23;20022;-81
2023/10/27 06:41:49;;;;;;;2.45;1.63;;;;;;;;;;6115852;23;20014;-81
2023/10/27 06:44:17;;;;;;;3.25;1.45;;;;;;;;;;6139382;23;20014;-81
2023/10/27 06:46:45;;;;;;;2.03;1.48;;;;;;;;;;6140690;23;20026;-80
2023/10/27 06:49:15;;;;;;;2.13;1.23;;;;;;;;;;6116299;23;20018;-80
2023/10/27 06:51:42;;;;;;;3.53;1.17;;;;;;;;;;6091547;23;20028;-80
2023/10/27 06:54:10;;;;;;;2.63;1.05;;;;;;;;;;6112758;23;20018;-80
2023/10/27 06:56:39;;;;;;;1.05;0.70;;;;;;;;;;6083846;23;20042;-80
2023/10/27 06:59:07;;;;;;;2.40;1.58;;;;;;;;;;6115174;23;20021;-80
2023/10/27 07:01:35;;;;;;;2.67;1.52;;;;;;;;;;6113855;23;20022;-80
2023/10/27 07:04:05;;;;;;;1.83;1.58;;;;;;;;;;6115239;23;20021;-80
2023/10/27 07:06:36;;;;;;;0.85;0.63;;;;;;;;;;6116940;23;20022;-80
2023/10/27 07:09:03;;;;;;;2.25;1.77;;;;;;;;;;6113279;23;20018;-81
2023/10/27 07:11:33;;;;;;;1.92;1.02;;;;;;;;;;6112983;23;20032;-80
2023/10/27 07:14:00;;;;;;;1.40;0.88;;;;;;;;;;6108582;23;20727;-80
2023/10/27 07:16:28;;;;;;;2.85;1.17;;;;;;;;;;6083241;23;20040;-81
2023/10/27 07:18:58;;;;;;;1.45;1.15;;;;;;;;;;6115930;23;20018;-81
2023/10/27 07:21:30;;;;;;;0.82;0.70;;;;;;;;;;6140342;23;20018;-81
2023/10/27 07:24:01;;;;;;;1.25;0.80;;;;;;;;;;6082540;23;20357;-81
2023/10/27 07:26:30;;;;;;;2.97;1.27;;;;;;;;;;6131673;23;20028;-81
2023/10/27 07:28:57;;;;;;;1.67;1.27;;;;;;;;;;6106711;23;20022;-81
2023/10/27 07:31:27;;;;;;;1.52;1.13;;;;;;;;;;6107218;23;20018;-81
2023/10/27 07:33:55;;;;;;;0.95;0.88;;;;;;;;;;6107429;23;20020;-81
2023/10/27 07:36:27;;;;;;;2.08;1.40;;;;;;;;;;6130787;23;20036;-81
2023/10/27 07:38:54;;;;;;;4.10;1.20;;;;;;;;;;6105427;23;20025;-81
2023/10/27 07:41:23;;;;;;;1.23;1.13;;;;;;;;;;6082674;23;20025;-81
2023/10/27 07:43:52;;;;;;;1.17;0.75;;;;;;;;;;6132082;23;20014;-81
2023/10/27 07:46:20;;;;;;;0.95;0.88;;;;;;;;;;6083595;23;20021;-81
2023/10/27 07:48:49;;;;;;;1.25;0.98;;;;;;;;;;6108306;23;20028;-81
2023/10/27 07:51:23;;;;;;;1.70;1.15;;;;;;;;;;6143618;23;20024;-81
2023/10/27 07:53:53;;;;;;;1.75;1.27;;;;;;;;;;6084388;23;20014;-81
2023/10/27 07:56:24;;;;;;;1.50;1.00;;;;;;;;;;6083296;23;20032;-81
2023/10/27 07:58:54;;;;;;;1.27;1.00;;;;;;;;;;6084105;23;20466;-81
2023/10/27 08:01:24;;;;;;;1.27;1.10;;;;;;;;;;6132807;23;20462;-81
2023/10/27 08:03:51;;;;;;;0.95;0.90;;;;;;;;;;6107191;23;20018;-82
2023/10/27 08:06:18;;;;;;;1.35;0.90;;;;;;;;;;6130286;23;20030;-82
2023/10/27 08:08:46;;;;;;;1.88;1.02;;;;;;;;;;6080726;23;20022;-81
2023/10/27 08:11:15;;;;;;;2.55;1.00;;;;;;;;;;6128565;23;20014;-82
2023/10/27 08:13:47;;;;;;;2.80;0.90;;;;;;;;;;6080834;23;20074;-82
2023/10/27 08:16:14;;;;;;;3.28;1.55;;;;;;;;;;6104354;23;20022;-82
2023/10/27 08:18:45;;;;;;;2.72;0.77;;;;;;;;;;6131407;23;20014;-82
2023/10/27 08:21:13;;;;;;;1.17;0.73;;;;;;;;;;6105660;23;20036;-82
2023/10/27 08:23:45;;;;;;;0.77;0.77;;;;;;;;;;6105802;23;20075;-82
2023/10/27 08:26:12;;;;;;;1.20;0.85;;;;;;;;;;6106698;23;20026;-82
2023/10/27 08:28:41;;;;;;;0.75;0.50;;;;;;;;;;6132080;23;20018;-81
2023/10/27 08:31:16;;;;;;;0.73;0.73;;;;;;;;;;6135468;23;20028;-81
2023/10/27 08:33:46;;;;;;;2.75;0.75;;;;;;;;;;6085247;23;20022;-81
2023/10/27 08:36:15;;;;;;;1.10;1.00;;;;;;;;;;6109384;23;20453;-80
2023/10/27 08:38:45;;;;;;;3.13;0.90;;;;;;;;;;6112871;23;20028;-80
2023/10/27 08:41:14;;;;;;;1.77;0.60;;;;;;;;;;6136544;23;20044;-80
2023/10/27 08:43:42;;;;;;;2.40;0.60;;;;;;;;;;6087699;23;20032;-80
2023/10/27 08:46:15;;;;;;;3.85;1.10;;;;;;;;;;6109882;23;20018;-80
2023/10/27 08:48:43;;;;;;;1.13;0.93;;;;;;;;;;6107828;23;20338;-81
2023/10/27 08:51:11;;;;;;;1.13;0.77;;;;;;;;;;6109108;23;20026;-81
2023/10/27 08:53:40;;;;;;;1.08;0.73;;;;;;;;;;6109400;23;20528;-81
2023/10/27 08:56:12;;;;;;;1.38;0.90;;;;;;;;;;6084995;23;20026;-81
2023/10/27 08:58:39;;;;;;;1.50;1.02;;;;;;;;;;6120475;23;20014;-81
2023/10/27 09:01:09;;;;;;;0.65;0.43;;;;;;;;;;6086209;23;20381;-81
2023/10/27 09:03:39;;;;;;;1.38;1.08;;;;;;;;;;6107668;23;20466;-81
2023/10/27 09:06:10;;;;;;;2.08;0.95;;;;;;;;;;6081456;23;20024;-81
2023/10/27 09:08:39;;;;;;;0.85;0.60;;;;;;;;;;6083953;23;20017;-81
2023/10/27 09:11:07;;;;;;;0.95;0.70;;;;;;;;;;6106917;23;20014;-81
2023/10/27 09:13:39;;;;;;;1.85;0.95;;;;;;;;;;6106772;23;20504;-81
2023/10/27 09:16:09;;;;;;;1.80;0.90;;;;;;;;;;6143247;23;20018;-81
2023/10/27 09:18:36;;;;;;;2.30;0.80;;;;;;;;;;6084643;23;20028;-81
2023/10/27 09:21:05;;;;;;;1.33;0.80;;;;;;;;;;6085699;23;20022;-81
2023/10/27 09:23:44;;;;;;;0.90;0.57;;;;;;;;;;6086503;23;20018;-81
2023/10/27 09:26:16;;;;;;;0.60;0.50;;;;;;;;;;6110125;23;20026;-81
2023/10/27 09:29:00;;;;;;;0.93;0.73;;;;;;;;;;6086132;23;20025;-81
2023/10/27 09:31:34;;;;;;;1.75;1.00;;;;;;;;;;6107186;23;20026;-81
2023/10/27 09:34:17;;;;;;;1.13;0.80;;;;;;;;;;6085194;23;20018;-81
2023/10/27 09:36:50;;;;;;;3.17;0.80;;;;;;;;;;6144455;23;20386;-81
2023/10/27 09:39:20;;;;;;;1.10;0.70;;;;;;;;;;6108831;23;20615;-81
2023/10/27 09:41:57;;;;;;;3.60;1.10;;;;;;;;;;6084026;23;20024;-81
2023/10/27 09:44:29;;;;;;;1.52;0.80;;;;;;;;;;6109025;23;20021;-81
2023/10/27 09:47:00;;;;;;;1.45;0.93;;;;;;;;;;6085004;23;20030;-81
2023/10/27 09:49:32;;;;;;;1.85;0.88;;;;;;;;;;6142344;23;20025;-81
2023/10/27 09:52:09;;;;;;;1.63;1.10;;;;;;;;;;6082538;23;20028;-82
2023/10/27 09:54:43;;;;;;;1.58;1.00;;;;;;;;;;6117053;23;20022;-81
2023/10/27 09:57:11;;;;;;;0.90;0.60;;;;;;;;;;6105987;23;20022;-81
2023/10/27 09:59:42;;;;;;;1.65;1.40;;;;;;;;;;6105723;23;20030;-81
2023/10/27 10:02:12;;;;;;;5.43;0.88;;;;;;;;;;6130900;23;20022;-81
2023/10/27 10:05:00;;;;;;;3.25;1.13;;;;;;;;;;6081988;23;20024;-80
2023/10/27 10:07:34;;;;;;;1.17;0.90;;;;;;;;;;6115005;23;20025;-80
2023/10/27 10:10:20;;;;;;;5.05;1.40;;;;;;;;;;6080904;23;20033;-82
2023/10/27 10:13:12;;;;;;;3.95;0.90;;;;;;;;;;6106104;23;20396;-81
2023/10/27 10:15:40;;;;;;;1.85;1.27;;;;;;;;;;6080411;23;20070;-81
2023/10/27 10:18:09;;;;;;;1.88;0.93;;;;;;;;;;6129169;23;20025;-81
2023/10/27 10:20:57;;;;;;;1.27;0.95;;;;;;;;;;6106737;23;20078;-81
2023/10/27 10:24:17;;;;;;;1.15;0.80;;;;;;;;;;6082012;23;20024;-81
2023/10/27 10:27:10;;;;;;;3.00;0.95;;;;;;;;;;6141603;23;20010;-81
2023/10/27 10:29:40;;;;;;;2.17;1.30;;;;;;;;;;6082566;23;20024;-81
2023/10/27 10:32:29;;;;;;;2.13;1.10;;;;;;;;;;6105132;23;20021;-81
2023/10/27 10:35:19;;;;;;;1.70;1.25;;;;;;;;;;6081091;23;20018;-81
2023/10/27 10:37:46;;;;;;;2.28;0.82;;;;;;;;;;6104832;23;20022;-81
2023/10/27 10:40:22;;;;;;;1.15;0.40;;;;;;;;;;6106079;23;20021;-81
2023/10/27 10:43:23;;;;;;;1.63;0.80;;;;;;;;;;6115292;23;20018;-81
2023/10/27 10:45:54;;;;;;;2.97;0.88;;;;;;;;;;5989141;23;20356;-81
2023/10/27 10:48:24;;;;;;;2.25;0.82;;;;;;;;;;6108657;23;20018;-81
2023/10/27 10:50:58;;;;;;;2.85;0.90;;;;;;;;;;6104628;23;20044;-80
2023/10/27 10:53:28;;;;;;;4.93;1.25;;;;;;;;;;6080478;23;20022;-81
2023/10/27 10:55:59;;;;;;;0.60;0.50;;;;;;;;;;6105215;23;20026;-81
2023/10/27 10:58:31;;;;;;;1.00;0.60;;;;;;;;;;6105073;23;20034;-81
2023/10/27 11:01:00;;;;;;;1.60;0.90;;;;;;;;;;6082382;23;20026;-80
2023/10/27 11:03:31;;;;;;;1.50;0.80;;;;;;;;;;6133363;23;20350;-80
2023/10/27 11:06:00;;;;;;;3.40;0.82;;;;;;;;;;6106259;23;20026;-81
2023/10/27 11:08:29;;;;;;;0.95;0.82;;;;;;;;;;6082106;23;20770;-81
2023/10/27 11:11:00;;;;;;;2.70;0.93;;;;;;;;;;6081612;23;20029;-81
2023/10/27 11:13:28;;;;;;;1.92;1.05;;;;;;;;;;6082608;23;20467;-81
2023/10/27 11:15:57;;;;;;;5.75;3.03;;;;;;;;;;6106678;23;20021;-81
2023/10/27 11:18:27;;;;;;;4.00;1.23;;;;;;;;;;6141743;23;20021;-80
2023/10/27 11:20:57;;;;;;;4.78;2.42;;;;;;;;;;6106721;23;20018;-80
2023/10/27 11:23:31;;;;;;;2.75;1.08;;;;;;;;;;6083175;23;20466;-80
2023/10/27 11:26:04;;;;;;;1.90;0.80;;;;;;;;;;6082513;23;20028;-80
2023/10/27 11:28:37;;;;;;;3.05;0.70;;;;;;;;;;6115316;23;20032;-81
2023/10/27 11:31:11;;;;;;;3.08;1.00;;;;;;;;;;6082876;23;20024;-81
2023/10/27 11:34:02;;;;;;;2.10;0.80;;;;;;;;;;6114680;23;20356;-80
2023/10/27 11:36:31;;;;;;;2.53;0.90;;;;;;;;;;6115367;23;20025;-80
2023/10/27 11:39:12;;;;;;;5.55;1.05;;;;;;;;;;6083660;23;20466;-81
2023/10/27 11:41:42;;;;;;;1.65;1.13;;;;;;;;;;6106536;23;20018;-81
2023/10/27 11:44:09;;;;;;;1.70;1.05;;;;;;;;;;6106405;23;20028;-81
2023/10/27 11:46:45;;;;;;;1.45;1.00;;;;;;;;;;6105064;23;20032;-81
2023/10/27 11:49:12;;;;;;;3.38;1.25;;;;;;;;;;6104286;23;20037;-81
2023/10/27 11:51:43;;;;;;;3.30;1.35;;;;;;;;;;6132438;23;20024;-79
2023/10/27 11:54:10;;;;;;;2.13;1.45;;;;;;;;;;6131165;23;20025;-80
2023/10/27 11:56:37;;;;;;;1.88;1.77;;;;;;;;;;6082095;23;20418;-80
2023/10/27 11:59:07;;;;;;;4.05;1.30;;;;;;;;;;6106289;23;20036;-80
2023/10/27 12:01:37;;;;;;;1.60;1.20;;;;;;;;;;6083189;23;20032;-80
2023/10/27 12:04:07;;;;;;;2.97;1.52;;;;;;;;;;6082161;23;20032;-80
2023/10/27 12:06:34;;;;;;;6.68;1.20;;;;;;;;;;6106376;23;20017;-80
2023/10/27 12:09:02;;;;;;;1.83;1.33;;;;;;;;;;6105448;23;20028;-80
2023/10/27 12:11:30;;;;;;;8.73;1.42;;;;;;;;;;6082181;23;20028;-80
2023/10/27 12:13:59;;;;;;;1.70;1.38;;;;;;;;;;6106013;23;20028;-80
2023/10/27 12:16:27;;;;;;;2.80;0.93;;;;;;;;;;6105043;23;20036;-80
2023/10/27 12:18:55;;;;;;;3.85;1.33;;;;;;;;;;6131083;23;20482;-80
2023/10/27 12:21:27;;;;;;;3.33;1.15;;;;;;;;;;6082632;23;20028;-80
2023/10/27 12:23:54;;;;;;;2.17;0.90;;;;;;;;;;6107491;23;20020;-80
2023/10/27 12:26:24;;;;;;;2.80;1.58;;;;;;;;;;6106354;23;20014;-80
2023/10/27 12:28:54;;;;;;;1.58;1.00;;;;;;;;;;6106934;23;20018;-80
2023/10/27 12:31:21;;;;;;;4.05;1.85;;;;;;;;;;6104468;23;20025;-80
2023/10/27 12:33:49;;;;;;;3.15;1.20;;;;;;;;;;6105721;23;20025;-80
2023/10/27 12:36:18;;;;;;;3.15;1.20;;;;;;;;;;6105419;23;20022;-80
2023/10/27 12:38:49;;;;;;;8.15;2.88;;;;;;;;;;6132017;23;20025;-80
2023/10/27 12:41:16;;;;;;;2.17;1.42;;;;;;;;;;6105201;23;20032;-80
2023/10/27 12:43:44;;;;;;;3.08;1.10;;;;;;;;;;6130088;23;20018;-80
2023/10/27 12:46:12;;;;;;;3.72;1.55;;;;;;;;;;6105532;23;20021;-80
2023/10/27 12:48:39;;;;;;;2.45;1.42;;;;;;;;;;6101257;23;20018;-80
2023/10/27 12:51:08;;;;;;;1.60;1.13;;;;;;;;;;6129377;23;20029;-80
2023/10/27 12:53:40;;;;;;;5.85;2.22;;;;;;;;;;6102686;23;20032;-80
2023/10/27 12:56:09;;;;;;;3.25;1.88;;;;;;;;;;6114794;23;20041;-80
2023/10/27 12:58:39;;;;;;;1.67;1.30;;;;;;;;;;6140874;23;20021;-80
2023/10/27 13:01:09;;;;;;;1.90;1.27;;;;;;;;;;6079861;23;20022;-80
2023/10/27 13:03:36;;;;;;;2.67;1.52;;;;;;;;;;6104162;23;20022;-80
2023/10/27 13:06:14;;;;;;;2.45;1.08;;;;;;;;;;6105859;23;20028;-80
2023/10/27 13:08:44;;;;;;;3.03;1.27;;;;;;;;;;6114388;23;20022;-80
2023/10/27 13:11:18;;;;;;;1.90;1.25;;;;;;;;;;6105111;23;20026;-80
2023/10/27 13:13:58;;;;;;;7.25;2.10;;;;;;;;;;6118628;23;20024;-84
2023/10/27 13:16:40;;;;;;;4.03;1.80;;;;;;;;;;6102823;23;20021;-83
2023/10/27 13:19:11;;;;;;;5.28;3.45;;;;;;;;;;6102167;23;20113;-83
2023/10/27 13:21:47;;;;;;;4.38;2.65;;;;;;;;;;6138250;23;20036;-83
2023/10/27 13:24:19;;;;;;;3.30;1.40;;;;;;;;;;6126542;23;20109;-85
2023/10/27 13:27:10;;;;;;;2.55;1.50;;;;;;;;;;6127931;23;20018;-85
2023/10/27 13:29:46;;;;;;;3.25;2.17;;;;;;;;;;6126868;23;20028;-85
2023/10/27 13:32:15;;;;;;;2.45;1.40;;;;;;;;;;6127755;23;20414;-84
2023/10/27 13:34:43;;;;;;;2.97;1.60;;;;;;;;;;6153703;23;20020;-85
2023/10/27 13:37:10;;;;;;;1.52;1.02;;;;;;;;;;6155955;23;20013;-84
2023/10/27 13:39:38;;;;;;;2.25;1.10;;;;;;;;;;6136379;23;20018;-84
2023/10/27 13:42:07;;;;;;;2.58;1.10;;;;;;;;;;6102261;23;20029;-84
2023/10/27 13:44:38;;;;;;;2.92;1.08;;;;;;;;;;6135791;23;20035;-84
2023/10/27 13:47:09;;;;;;;1.88;1.20;;;;;;;;;;6154412;23;20021;-84
2023/10/27 13:49:38;;;;;;;2.03;1.15;;;;;;;;;;6103782;23;20021;-84
2023/10/27 13:52:06;;;;;;;5.30;1.02;;;;;;;;;;6154046;23;20342;-84
2023/10/27 13:54:34;;;;;;;1.48;1.15;;;;;;;;;;6154934;23;20354;-84
2023/10/27 13:57:01;;;;;;;3.00;1.27;;;;;;;;;;6148836;23;20008;-84
2023/10/27 13:59:30;;;;;;;2.78;1.20;;;;;;;;;;6155011;23;20021;-84
2023/10/27 14:02:20;;;;;;;2.05;1.00;;;;;;;;;;6139036;23;20021;-84
2023/10/27 14:04:52;;;;;;;4.47;1.50;;;;;;;;;;6136690;23;20021;-84
2023/10/27 14:07:33;;;;;;;5.43;2.97;;;;;;;;;;6126592;23;20021;-84
2023/10/27 14:10:03;;;;;;;3.85;2.33;;;;;;;;;;6125289;23;20025;-85
2023/10/27 14:12:34;;;;;;;3.40;1.55;;;;;;;;;;6125267;23;20033;-85
2023/10/27 14:15:06;;;;;;;2.60;1.67;;;;;;;;;;6151940;23;20790;-84
2023/10/27 14:17:35;;;;;;;2.55;1.92;;;;;;;;;;6126324;23;20017;-85
2023/10/27 14:20:05;;;;;;;2.10;1.20;;;;;;;;;;6101060;23;20021;-85
2023/10/27 14:22:35;;;;;;;3.17;1.70;;;;;;;;;;6125653;23;20017;-84
2023/10/27 14:25:07;;;;;;;2.63;2.08;;;;;;;;;;6125214;23;20014;-84
2023/10/27 14:27:35;;;;;;;0.77;0.73;;;;;;;;;;6135048;23;20010;-84
2023/10/27 14:30:12;;;;;;;0.80;0.73;;;;;;;;;;6131483;23;20018;-85
2023/10/27 14:32:50;;;;;;;1.88;0.88;;;;;;;;;;6162227;23;20025;-84
2023/10/27 14:35:18;;;;;;;1.42;1.13;;;;;;;;;;6162801;23;20021;-85
2023/10/27 14:37:46;;;;;;;2.47;1.02;;;;;;;;;;6151812;23;20013;-84
2023/10/27 14:40:14;;;;;;;1.15;0.85;;;;;;;;;;6125604;23;20025;-84
2023/10/27 14:42:44;;;;;;;0.90;0.80;;;;;;;;;;6152479;23;20017;-85
2023/10/27 14:45:16;;;;;;;1.20;0.95;;;;;;;;;;6126087;23;20024;-84
2023/10/27 14:47:43;;;;;;;1.63;1.33;;;;;;;;;;6126213;23;20517;-84
2023/10/27 14:50:17;;;;;;;1.50;0.90;;;;;;;;;;6125640;23;20024;-85
2023/10/27 14:52:44;;;;;;;3.88;0.68;;;;;;;;;;6136721;23;20029;-84
2023/10/27 14:55:14;;;;;;;3.35;1.17;;;;;;;;;;6125841;23;20316;-84
2023/10/27 14:57:43;;;;;;;2.45;0.75;;;;;;;;;;6126217;23;20024;-84
2023/10/27 15:00:12;;;;;;;2.72;0.73;;;;;;;;;;6124279;23;20026;-85
2023/10/27 15:02:44;;;;;;;0.85;0.70;;;;;;;;;;6152895;23;20337;-85